This is the latest recevied weather packets stored in our database for station/object EW2905. If no packets are shown the sender has not sent any weather packets the latest 10 day(s).
| Time | Temp. | Humidity | Pressure | Rain* | Wind** | Luminosity | Snow |
|---|---|---|---|---|---|---|---|
| 1777894775 | 22.78° C | 40% | 1018.9 hPa | 0 mm | - | - | - |
| 1777894595 | 22.78° C | 42% | 1018.9 hPa | 0 mm | - | - | - |
| 1777893875 | 23.33° C | 41% | 1018.9 hPa | 0 mm | - | - | - |
| 1777893695 | 23.33° C | 39% | 1018.9 hPa | 0 mm | - | - | - |
| 1777893515 | 23.33° C | 40% | 1018.9 hPa | 0 mm | - | - | - |
| 1777893336 | 22.78° C | 43% | 1018.9 hPa | 0 mm | - | - | - |
| 1777892795 | 22.22° C | 41% | 1018.9 hPa | 0 mm | - | - | - |
| 1777892435 | 22.78° C | 41% | 1018.9 hPa | 0 mm | - | - | - |
| 1777892255 | 22.78° C | 41% | 1018.9 hPa | 0 mm | - | - | - |
| 1777892075 | 22.22° C | 41% | 1018.9 hPa | 0 mm | - | - | - |
| 1777891895 | 22.22° C | 41% | 1018.9 hPa | 0 mm | - | - | - |
| 1777891535 | 22.78° C | 39% | 1018.9 hPa | 0 mm | - | - | - |
| 1777891355 | 22.22° C | 43% | 1018.9 hPa | 0 mm | - | - | - |
| 1777891175 | 22.22° C | 42% | 1018.9 hPa | 0 mm | - | - | - |
| 1777890815 | 22.78° C | 42% | 1018.9 hPa | 0 mm | - | - | - |
| 1777889735 | 22.78° C | 40% | 1018.9 hPa | 0 mm | - | - | - |
| 1777889556 | 22.22° C | 46% | 1018.9 hPa | 0 mm | - | - | - |
| 1777833035 | 13.89° C | 76% | 1021.4 hPa | 0 mm | - | - | - |
| 1777832856 | 13.89° C | 75% | 1021.4 hPa | 0 mm | - | - | - |
| 1777832676 | 13.89° C | 74% | 1021.4 hPa | 0 mm | - | - | - |
| 1777832496 | 14.44° C | 74% | 1021.4 hPa | 0 mm | - | - | - |
| 1777832316 | 14.44° C | 73% | 1021.4 hPa | 0 mm | - | - | - |
| 1777832135 | 15° C | 73% | 1021.4 hPa | 0 mm | - | - | - |
| 1777831955 | 15° C | 72% | 1021.4 hPa | 0 mm | - | - | - |
| 1777831595 | 15.56° C | 72% | 1021.4 hPa | 0 mm | - | - | - |
* Rain latest hour (hover to see other rain measurements)
** Current wind speed in m/s (hover to see current wind gust speed)